Bezoek onze andere website:

Template documentation
and downloads

And another site


Weather Underground Historische gegevens

Dagelijkse Samenvatting juli 22, 2018 Eenheden:  Metrisch    Engels   Beide
« Vorige Dag
Volgende Dag »
Dagelijkse Wekelijkse Maandelijkse Jaarlijkse Aangepaste
  Huidig: Hoog: Laag: Gemiddeld:
Temperatuur: -3.2 °C -17.8 °C -10.9 °C -7.5 °C
Dauwpunt: -10 °C -17.8 °C -11.8 °C -10.3 °C
Vochtigheid: 47 % Humidity % 44 % 73 %
Wind snelheid: 2.3 km/h 0 km/h 0 km/h 3.1 km/h
Windvlaag: 12.9 km/h 0 km/h - -
Wind:WNW - - SW
Luchtdruk: 34293.4 hPa 0 hPa 34235.8 hPa -
Neerslag: 0 mm      
Historical Graphs
 
 
Tabel voor juli 22, 2018
Tijd Temperatuur Dauwpunt Luchtdruk Wind Wind snelheid Windvlaag Vochtigheid Regenval per uur
-17.8 °C -17.8 °C 0 hPa Calm     Humidity % 0 mm
00:00 -7.9 °C -10.2 °C 34235.8 hPa West 5.1 km/h 5.1 km/h 77 % 0 mm
00:10 -8 °C -10.3 °C 34235.8 hPa West 2.3 km/h 5.1 km/h 77 % 0 mm
00:20 -8.1 °C -10.4 °C 34235.8 hPa WNW 5.1 km/h 5.1 km/h 77 % 0 mm
00:30 -8.2 °C -10.4 °C 34235.8 hPa Calm   10.3 km/h 77 % 0 mm
00:41 -8.2 °C -10.5 °C 34235.8 hPa SSW 2.3 km/h 5.1 km/h 77 % 0 mm
00:51 -8.3 °C -10.6 °C 34235.8 hPa Calm   2.6 km/h 77 % 0 mm
01:01 -8.3 °C -10.4 °C 34235.8 hPa NE 5.1 km/h 5.1 km/h 78 % 0 mm
01:11 -8.2 °C -10.5 °C 34235.8 hPa Calm   5.1 km/h 77 % 0 mm
01:21 -8.3 °C -10.6 °C 34246 hPa Calm     77 % 0 mm
01:31 -8.4 °C -10.9 °C 34235.8 hPa NW 2.3 km/h 2.6 km/h 75 % 0 mm
01:41 -8.4 °C -11.1 °C 34235.8 hPa NE 2.3 km/h 2.6 km/h 74 % 0 mm
01:51 -8.5 °C -11.1 °C 34235.8 hPa Calm   2.6 km/h 74 % 0 mm
02:01 -8.6 °C -11.2 °C 34235.8 hPa Calm     74 % 0 mm
02:11 -8.8 °C -11.2 °C 34235.8 hPa ESE 2.3 km/h 2.6 km/h 75 % 0 mm
02:21 -8.9 °C -11.2 °C 34246 hPa Calm   2.6 km/h 77 % 0 mm
02:31 -9.1 °C -11.4 °C 34246 hPa Calm   2.6 km/h 76 % 0 mm
02:41 -9.2 °C -11.4 °C 34246 hPa Calm   2.6 km/h 77 % 0 mm
02:51 -9.4 °C -11.5 °C 34246 hPa Calm     78 % 0 mm
03:01 -9.5 °C -11.6 °C 34246 hPa ESE 2.3 km/h 2.6 km/h 78 % 0 mm
03:11 -9.7 °C -11.6 °C 34246 hPa Calm     80 % 0 mm
03:21 -9.8 °C -11.4 °C 34246 hPa Calm   2.6 km/h 82 % 0 mm
03:31 -9.8 °C -11.4 °C 34246 hPa Calm     83 % 0 mm
03:42 -9.9 °C -11.5 °C 34246 hPa Calm     83 % 0 mm
03:52 -10 °C -11.4 °C 34246 hPa Calm     85 % 0 mm
04:02 -10.1 °C -11.2 °C 34246 hPa Calm     88 % 0 mm
04:12 -10.1 °C -11.3 °C 34246 hPa Calm   2.6 km/h 87 % 0 mm
04:22 -10.2 °C -11.3 °C 34246 hPa Calm     88 % 0 mm
04:32 -10.2 °C -11.3 °C 34256.2 hPa Calm     88 % 0 mm
04:43 -10.2 °C -11.1 °C 34256.2 hPa Calm     90 % 0 mm
04:53 -10.3 °C -11.2 °C 34256.2 hPa Calm     90 % 0 mm
05:03 -10.4 °C -11.3 °C 34256.2 hPa Calm     90 % 0 mm
05:13 -10.5 °C -11.4 °C 34256.2 hPa Calm     90 % 0 mm
05:23 -10.6 °C -11.5 °C 34256.2 hPa Calm     90 % 0 mm
05:33 -10.8 °C -11.7 °C 34269.7 hPa Calm     90 % 0 mm
05:43 -10.9 °C -11.8 °C 34269.7 hPa Calm     90 % 0 mm
05:53 -10.9 °C -11.7 °C 34269.7 hPa Calm     91 % 0 mm
06:03 -10.9 °C -11.6 °C 34269.7 hPa Calm     92 % 0 mm
06:14 -10.9 °C -11.6 °C 34269.7 hPa Calm     92 % 0 mm
06:24 -10.8 °C -11.4 °C 34269.7 hPa Calm     93 % 0 mm
06:34 -10.7 °C -11.3 °C 34269.7 hPa Calm     93 % 0 mm
06:44 -10.7 °C -11.3 °C 34269.7 hPa Calm     93 % 0 mm
06:54 -10.6 °C -11.2 °C 34269.7 hPa Calm     93 % 0 mm
07:04 -10.3 °C -10.8 °C 34269.7 hPa Calm     94 % 0 mm
07:14 -9.8 °C -10.4 °C 34269.7 hPa Calm     94 % 0 mm
07:24 -9.3 °C -9.9 °C 34269.7 hPa Calm     93 % 0 mm
07:34 -8.8 °C -9.4 °C 34269.7 hPa Calm   2.6 km/h 93 % 0 mm
07:45 -8.6 °C -9.4 °C 34269.7 hPa West 7.6 km/h 7.7 km/h 91 % 0 mm
07:55 -8.1 °C -9.1 °C 34279.9 hPa West 2.3 km/h 5.1 km/h 90 % 0 mm
08:05 -8.1 °C -9 °C 34279.9 hPa West 2.3 km/h 2.6 km/h 90 % 0 mm
08:15 -8.1 °C -9 °C 34279.9 hPa West 2.3 km/h -2586.8 km/h 90 % 0 mm
08:25 -6.8 °C -8.4 °C 34279.9 hPa West 2.3 km/h -2586.8 km/h 83 % 0 mm
08:35 -6.4 °C -8.3 °C 34279.9 hPa WNW 2.3 km/h 10.3 km/h 81 % 0 mm
08:45 -6.1 °C -8 °C 34279.9 hPa WSW 2.3 km/h 7.7 km/h 81 % 0 mm
08:55 -5.9 °C -8.2 °C 34279.9 hPa WNW 2.3 km/h 10.3 km/h 78 % 0 mm
09:05 -5.7 °C -8.2 °C 34293.4 hPa West 5.1 km/h 10.3 km/h 76 % 0 mm
09:15 -5.6 °C -8.1 °C 34293.4 hPa Calm   7.7 km/h 76 % 0 mm
09:25 -5.5 °C -8.2 °C 34293.4 hPa NE 7.6 km/h 7.7 km/h 74 % 0 mm
09:35 -5.4 °C -8.1 °C 34293.4 hPa WNW 5.1 km/h 12.9 km/h 74 % 0 mm
09:46 -5.2 °C -8.3 °C 34303.6 hPa North 5.1 km/h 10.3 km/h 71 % 0 mm
09:56 -5.4 °C -8.3 °C 34303.6 hPa NW 2.3 km/h 7.7 km/h 72 % 0 mm
10:06 -5.4 °C -8.5 °C 34303.6 hPa NE 10.3 km/h 10.3 km/h 71 % 0 mm
10:16 -5.4 °C -8.5 °C 34303.6 hPa NNW 2.3 km/h -2586.8 km/h 71 % 0 mm
10:26 -5.4 °C -8.5 °C 34303.6 hPa NNW 2.3 km/h -2586.8 km/h 71 % 0 mm
10:36 -5.4 °C -8.5 °C 34303.6 hPa NNW 2.3 km/h -2586.8 km/h 71 % 0 mm
10:46 -5.4 °C -8.5 °C 34303.6 hPa NNW 2.3 km/h -2586.8 km/h 71 % 0 mm
10:56 -4.3 °C -8.5 °C 34303.6 hPa West 23 km/h 25.9 km/h 63 % 0 mm
11:07 -4.3 °C -8.7 °C 34303.6 hPa SW 7.6 km/h 12.9 km/h 61 % 0 mm
11:17 -4 °C -9.4 °C 34303.6 hPa WSW 5.1 km/h 10.3 km/h 55 % 0 mm
11:27 -4 °C -10.2 °C 34303.6 hPa WSW 10.3 km/h 15.6 km/h 50 % 0 mm
11:37 -4.1 °C -10.1 °C 34303.6 hPa North 5.1 km/h 12.9 km/h 51 % 0 mm
11:47 -4.1 °C -9.9 °C 34303.6 hPa SSW 20.9 km/h 20.8 km/h 52 % 0 mm
11:57 -4.2 °C -10.1 °C 34303.6 hPa WSW 5.1 km/h 7.7 km/h 52 % 0 mm
12:07 -3.8 °C -9.8 °C 34303.6 hPa NNW 2.3 km/h 15.6 km/h 51 % 0 mm
12:17 -3.9 °C -10.1 °C 34303.6 hPa West 5.1 km/h 10.3 km/h 50 % 0 mm
12:27 -3.8 °C -10.4 °C 34303.6 hPa SW 5.1 km/h 20.8 km/h 48 % 0 mm
12:37 -3.8 °C -10 °C 34303.6 hPa NNW 7.6 km/h 7.7 km/h 50 % 0 mm
12:47 -3.6 °C -10.5 °C 34303.6 hPa WNW 7.6 km/h 15.6 km/h 46 % 0 mm
12:57 -3.8 °C -10.5 °C 34303.6 hPa WNW 5.1 km/h 25.9 km/h 47 % 0 mm
13:07 -3.6 °C -10.7 °C 34303.6 hPa ENE 5.1 km/h 10.3 km/h 45 % 0 mm
13:17 -3.6 °C -10.7 °C 34303.6 hPa South 17.9 km/h 23.3 km/h 45 % 0 mm
13:27 -3.7 °C -10.6 °C 34303.6 hPa NW 10.3 km/h 18.2 km/h 46 % 0 mm
13:37 -4 °C -10.7 °C 34303.6 hPa NNE 5.1 km/h 5.1 km/h 47 % 0 mm
13:47 -4.1 °C -10.6 °C 34303.6 hPa SW 5.1 km/h 10.3 km/h 48 % 0 mm
13:57 -3.7 °C -10.4 °C 34303.6 hPa WNW 10.3 km/h 10.3 km/h 47 % 0 mm
14:07 -3.2 °C -10.5 °C 34293.4 hPa NNE 5.1 km/h 10.3 km/h 44 % 0 mm
14:17 -3.4 °C -10.2 °C 34293.4 hPa NW 7.6 km/h 12.9 km/h 47 % 0 mm
14:27 -3.2 °C -10 °C 34293.4 hPa WNW 2.3 km/h 12.9 km/h 47 % 0 mm
Weerstation Vierhouten
Gegevens verzameld door Weather Underground - 4 mb

Script ontwikkeld door  Jim McMurry - jmcmurry@mwt.net Aangepast voor de template door  Wim van der Kuil - Leuven-Template.eu

U vindt ons ook hier:

Het Weer Aktueel

WeatherCloud

Weather Underground